Flight Track Log - Related Links

Times and Time Zones

All times are in EDT time to prevent confusion due to time zone crossing. See the EGF3984 flight status page for this flight to view local times or setup timezone preferences in your user account.

Time Position Orientation Groundspeed Altitude Reporting Facility
EDT Latitude Longitude Course Direction KTS MPH feet Rate Location/Type
Thu 09:08:31 AM 42.0000 -87.9333 90° East 173 199 1,900  Level Chicago TRACON
Thu 09:09:31 AM 42.0500 -87.8833 37° Northeast 229 264 4,400 2,053 Climbing Chicago TRACON
Thu 09:10:00 AM 41.9605 -87.4713 98° East  Level FlightAware Approximate
Thu 09:11:00 AM 41.9474 -87.3293 95° East  Level FlightAware Approximate
Thu 09:11:03 AM 42.1411 -87.7858 38° Northeast 267 307 7,100  Level Chicago Center
Thu 09:12:00 AM 41.9372 -87.1870 95° East  Level FlightAware Approximate
Thu 09:12:05 AM 42.1383 -87.6825 92° East 284 327 9,800  Level Chicago Center
Thu 09:13:00 AM 41.9333 -87.0442 90° East  Level FlightAware Approximate
Thu 09:13:07 AM 42.1044 -87.5797 114° Southeast 298 343 12,000  Level Chicago Center
Thu 09:14:09 AM 42.0697 -87.4661 112° Southeast 325 374 13,800 1,306 Climbing Chicago Center
Thu 09:15:11 AM 42.0317 -87.3425 112° Southeast 350 403 14,700 871 Climbing Chicago Center
Thu 09:16:13 AM 41.9914 -87.2061 112° Southeast 377 434 15,600 1,403 Climbing Chicago Center
Thu 09:17:15 AM 41.9458 -87.0381 110° East 409 471 17,600 1,645 Climbing Chicago Center
Thu 09:18:17 AM 41.9247 -86.8906 101° East 406 467 19,000 1,452 Climbing Chicago Center
Thu 09:19:19 AM 41.9058 -86.7414 100° East 407 468 20,600 1,548 Climbing Chicago Center
Thu 09:20:21 AM 41.8872 -86.5878 99° East 413 475 22,200 1,161 Climbing Chicago Center
Thu 09:21:23 AM 41.8678 -86.4325 99° East 420 483 23,000 384 Climbing Chicago Center
Thu 09:22:26 AM 41.8458 -86.2664 100° East 442 509 23,000  Level Chicago Center
Thu 09:23:28 AM 41.8242 -86.0956 100° East 460 529 23,000  Level Chicago Center
Thu 09:24:30 AM 41.7975 -85.8933 100° East 454 522 23,000  Level Chicago Center
Thu 09:25:32 AM 41.7778 -85.7378 100° East 427 491 23,000  Level Chicago Center
Thu 09:26:34 AM 41.7319 -85.5922 113° Southeast 424 488 23,000  Level Chicago Center
Thu 09:27:36 AM 41.6697 -85.4286 117° Southeast 441 507 23,000  Level Chicago Center
Thu 09:28:38 AM 41.5625 -85.3611 155° Southeast 435 501 23,000  Level Chicago Center
Thu 09:29:40 AM 41.4453 -85.3256 167° South 434 499 23,000 -145 Level Chicago Center
Thu 09:30:42 AM 41.3297 -85.2753 162° South 442 509 22,700 -823 Descending Chicago Center
Thu 09:31:44 AM 41.2414 -85.1681 138° Southeast 437 503 21,300 -1,548 Descending Chicago Center
Thu 09:32:46 AM 41.1556 -85.0642 138° Southeast 425 489 19,500 -1,935 Descending Chicago Center
Thu 09:33:48 AM 41.0547 -84.9417 137° Southeast 415 478 17,300 -1,984 Descending Chicago Center
Thu 09:34:50 AM 40.9700 -84.8431 139° Southeast 410 472 15,400 -1,113 Descending Chicago Center
Thu 09:35:52 AM 40.8889 -84.7450 138° Southeast 400 460 15,000 -194 Descending Chicago Center
Thu 09:36:54 AM 40.8078 -84.6492 138° Southeast 394 453 15,000 -387 Level Chicago Center
Thu 09:37:56 AM 40.7272 -84.5556 139° Southeast 390 449 14,200 -871 Descending Chicago Center
Thu 09:38:58 AM 40.6500 -84.4633 138° Southeast 380 437 13,200 -1,049 Descending Chicago Center
Thu 09:39:39 AM 40.5953 -84.3997 139° Southeast 367 422 12,400 -1,138 Descending Indianapolis Center
Thu 09:39:56 AM 40.5636 -84.3669 142° Southeast 364 419 12,100 -1,065 Descending Indianapolis Center
Thu 09:40:41 AM 40.5092 -84.3406 160° South 348 400 11,300 -1,279 Descending Indianapolis Center
Thu 09:40:57 AM 40.4742 -84.3328 170° South 334 384 10,800 -1,258 Descending Indianapolis Center
Thu 09:41:43 AM 40.4017 -84.3153 170° South 335 386 10,000 -787 Descending Indianapolis Center
Thu 09:41:58 AM 40.3731 -84.3108 173° South 334 384 10,000 -97 Level Indianapolis Center
Thu 09:42:45 AM 40.3056 -84.2928 168° South 347 399 9,900 -936 Descending Indianapolis Center
Thu 09:43:47 AM 40.2242 -84.2717 169° South 308 354 8,300 -1,548 Descending Indianapolis Center

Login

Don't have an account? Register now (free) for customized features, flight alerts, and more!